Time;durP1;ratioP1;P1;durP2;ratioP2;P2;SDS_P1;SDS_P2;PMS_P1;PMS_P2;Temp;Humidity;BMP_temperature;BMP_pressure;BME280_temperature;BME280_humidity;BME280_pressure;Samples;Min_cycle;Max_cycle;Signal;HPM_P1;HPM_P2
2022/03/17 00:00:53;;;;;;;0.10;0.10;;;;;;;20.84;34.92;101650.78;5114613;28;20070;-32
2022/03/17 00:03:19;;;;;;;0.10;0.10;;;;;;;20.84;35.25;101648.03;5099126;28;20051;-32
2022/03/17 00:05:45;;;;;;;0.20;0.20;;;;;;;20.84;34.95;101648.03;5110648;28;20054;-29
2022/03/17 00:08:11;;;;;;;0.20;0.20;;;;;;;20.85;34.76;101646.91;5113766;28;20132;-32
2022/03/17 00:10:37;;;;;;;0.20;0.20;;;;;;;20.84;35.08;101646.09;5113717;28;20075;-32
2022/03/17 00:13:02;;;;;;;0.20;0.20;;;;;;;20.82;35.17;101648.31;5116849;28;20035;-28
2022/03/17 00:15:29;;;;;;;0.20;0.20;;;;;;;20.83;35.12;101652.72;5112872;28;20112;-34
2022/03/17 00:17:54;;;;;;;0.20;0.20;;;;;;;20.85;34.88;101644.16;5116372;28;20074;-29
2022/03/17 00:20:23;;;;;;;0.10;0.10;;;;;;;20.84;34.93;101645.25;5112499;28;20043;-32
2022/03/17 00:22:49;;;;;;;0.10;0.10;;;;;;;20.83;35.07;101644.44;5112768;28;20274;-30
2022/03/17 00:25:15;;;;;;;0.15;0.15;;;;;;;20.83;34.98;101641.66;5112934;28;20289;-29
2022/03/17 00:27:40;;;;;;;0.13;0.13;;;;;;;20.83;34.94;101649.13;5095834;28;20043;-33
2022/03/17 00:30:07;;;;;;;0.10;0.10;;;;;;;20.83;35.08;101649.13;5113963;28;20035;-28
2022/03/17 00:32:32;;;;;;;0.20;0.20;;;;;;;20.82;35.15;101647.50;5096418;28;20486;-31
2022/03/17 00:37:44;;;;;;;0.20;0.20;;;;;;;20.82;35.02;101653.84;5101102;28;20070;-31
2022/03/17 00:40:10;;;;;;;0.20;0.20;;;;;;;20.83;34.90;101638.91;5115618;28;20367;-31
2022/03/17 00:42:36;;;;;;;0.20;0.20;;;;;;;20.82;34.93;101644.72;5113226;28;20131;-29
2022/03/17 00:45:03;;;;;;;0.10;0.10;;;;;;;20.81;35.16;101641.09;5111691;28;20051;-33
2022/03/17 00:47:28;;;;;;;0.20;0.20;;;;;;;20.82;35.17;101634.47;5097200;28;20090;-31
2022/03/17 00:49:54;;;;;;;0.20;0.20;;;;;;;20.81;34.91;101632.78;5108333;28;20042;-31
2022/03/17 00:52:20;;;;;;;0.10;0.10;;;;;;;20.82;34.97;101634.47;5116833;28;20075;-31
2022/03/17 00:54:46;;;;;;;0.20;0.20;;;;;;;20.81;35.08;101632.78;5114348;28;20071;-30
2022/03/17 00:57:12;;;;;;;0.20;0.20;;;;;;;20.81;35.23;101632.78;5098418;28;20035;-31
2022/03/17 00:59:38;;;;;;;0.10;0.10;;;;;;;20.80;34.96;101629.19;5075769;28;20367;-33
2022/03/17 01:02:05;;;;;;;0.10;0.10;;;;;;;20.79;35.18;101624.75;5115780;28;20051;-32
2022/03/17 01:04:31;;;;;;;0.10;0.10;;;;;;;20.80;35.14;101622.81;5113373;28;20067;-34
2022/03/17 01:06:57;;;;;;;0.20;0.20;;;;;;;20.81;35.01;101632.78;5096144;28;20258;-33
2022/03/17 01:09:23;;;;;;;0.10;0.10;;;;;;;20.79;35.01;101627.53;5092533;28;20043;-35
2022/03/17 01:11:49;;;;;;;0.20;0.20;;;;;;;20.81;34.94;101621.72;5112073;28;20086;-30
2022/03/17 01:14:15;;;;;;;0.15;0.15;;;;;;;20.80;35.23;101620.06;5094079;28;20036;-30
2022/03/17 01:16:41;;;;;;;0.10;0.10;;;;;;;20.80;35.16;101631.97;5093935;28;20514;-30
2022/03/17 01:19:07;;;;;;;0.10;0.10;;;;;;;20.80;35.18;101620.88;5094432;28;20035;-36
2022/03/17 01:21:33;;;;;;;0.13;0.13;;;;;;;20.79;35.03;101629.47;5097080;28;20039;-36
2022/03/17 01:23:59;;;;;;;0.20;0.20;;;;;;;20.79;35.21;101629.47;5110488;28;20051;-33
2022/03/17 01:26:24;;;;;;;0.20;0.20;;;;;;;20.79;35.24;101623.94;5116419;28;20058;-29
2022/03/17 01:28:50;;;;;;;0.20;0.20;;;;;;;20.78;35.15;101617.56;5100747;28;20114;-30
2022/03/17 01:31:17;;;;;;;0.15;0.15;;;;;;;20.79;35.09;101626.72;5114043;28;20043;-31
2022/03/17 01:33:43;;;;;;;0.20;0.20;;;;;;;20.78;34.95;101630.59;5114970;28;20048;-29
2022/03/17 01:36:08;;;;;;;0.10;0.10;;;;;;;20.78;35.19;101627.81;5109183;28;20395;-29
2022/03/17 01:38:34;;;;;;;0.20;0.20;;;;;;;20.78;35.04;101616.75;5112678;28;20069;-29
2022/03/17 01:41:00;;;;;;;0.20;0.20;;;;;;;20.78;35.02;101622.28;5111986;28;20103;-29
2022/03/17 01:43:26;;;;;;;0.20;0.20;;;;;;;20.78;35.03;101620.34;5111407;28;20439;-32
2022/03/17 01:45:52;;;;;;;0.20;0.20;;;;;;;20.77;35.34;101624.22;5110366;28;20124;-31
2022/03/17 01:48:21;;;;;;;0.20;0.20;;;;;;;20.77;34.97;101618.69;5114596;28;20541;-30
2022/03/17 01:50:49;;;;;;;0.20;0.20;;;;;;;20.77;35.10;101627.00;5093772;28;20078;-31
2022/03/17 01:53:15;;;;;;;0.10;0.10;;;;;;;20.77;35.18;101624.22;5093849;28;20066;-32
2022/03/17 01:55:40;;;;;;;0.10;0.10;;;;;;;20.77;35.25;101628.94;5095948;28;20372;-30
2022/03/17 01:58:07;;;;;;;0.20;0.20;;;;;;;20.78;35.24;101627.81;5111649;28;20454;-34
2022/03/17 02:00:32;;;;;;;0.20;0.20;;;;;;;20.77;35.21;101623.41;5089150;28;20135;-35
2022/03/17 02:02:58;;;;;;;0.20;0.20;;;;;;;20.77;35.33;101624.22;5113855;28;20391;-29
2022/03/17 02:05:24;;;;;;;0.10;0.10;;;;;;;20.78;35.32;101628.66;5112779;27;20499;-29
2022/03/17 02:07:51;;;;;;;0.10;0.10;;;;;;;20.78;35.08;101622.28;5116428;28;20122;-30
2022/03/17 02:10:17;;;;;;;0.17;0.17;;;;;;;20.78;35.19;101630.59;5107523;28;20075;-29
2022/03/17 02:13:15;;;;;;;0.10;0.10;;;;;;;20.77;35.22;101627.00;5097772;28;20047;-33
2022/03/17 02:15:32;;;;;;;0.15;0.15;;;;;;;20.77;35.04;101627.00;5101710;28;20096;-30
2022/03/17 02:17:58;;;;;;;0.10;0.10;;;;;;;20.76;35.14;101624.47;5094316;28;20569;-31
2022/03/17 02:20:26;;;;;;;0.20;0.20;;;;;;;20.77;35.28;101617.84;5110503;27;20147;-31
2022/03/17 02:22:53;;;;;;;0.10;0.10;;;;;;;20.77;35.28;101623.41;5096803;28;20040;-32
2022/03/17 02:25:39;;;;;;;0.20;0.20;;;;;;;20.77;35.13;101618.69;5116421;28;20490;-33
2022/03/17 02:28:06;;;;;;;0.20;0.20;;;;;;;20.78;35.29;101625.06;5099245;28;20079;-30
2022/03/17 02:30:34;;;;;;;0.20;0.20;;;;;;;20.76;35.13;101627.25;5096363;28;20087;-29
2022/03/17 02:33:02;;;;;;;0.20;0.20;;;;;;;20.76;35.04;101630.00;5095633;28;20076;-29
2022/03/17 02:35:28;;;;;;;0.20;0.20;;;;;;;20.75;35.10;101615.34;5080380;28;20192;-32
2022/03/17 02:37:55;;;;;;;0.20;0.20;;;;;;;20.75;35.35;101620.88;5112555;28;20075;-32
2022/03/17 02:40:21;;;;;;;0.20;0.20;;;;;;;20.77;35.40;101621.47;5113506;28;20074;-30
2022/03/17 02:42:47;;;;;;;0.10;0.10;;;;;;;20.76;35.14;101624.47;5098553;28;20075;-29
2022/03/17 02:45:12;;;;;;;0.20;0.20;;;;;;;20.75;35.17;101625.59;5099470;28;20051;-32
2022/03/17 02:47:40;;;;;;;0.20;0.20;;;;;;;20.75;35.35;101633.91;5117269;28;20258;-31
2022/03/17 02:50:07;;;;;;;0.13;0.13;;;;;;;20.75;35.22;101629.19;5114579;28;21383;-29
2022/03/17 02:52:33;;;;;;;0.20;0.20;;;;;;;20.75;35.34;101623.66;5115244;28;20090;-30
2022/03/17 02:54:59;;;;;;;0.15;0.15;;;;;;;20.75;35.42;101612.56;5099141;28;20054;-28
2022/03/17 02:57:24;;;;;;;0.20;0.20;;;;;;;20.76;35.29;101616.19;5114360;28;20409;-34
2022/03/17 02:59:51;;;;;;;0.20;0.20;;;;;;;20.75;35.26;101620.06;5112877;28;20046;-30
2022/03/17 03:02:19;;;;;;;0.20;0.20;;;;;;;20.76;35.27;101635.56;5099535;28;20474;-32
2022/03/17 03:04:45;;;;;;;0.10;0.10;;;;;;;20.75;35.52;101634.72;5116019;27;20346;-30
2022/03/17 03:07:10;;;;;;;0.10;0.10;;;;;;;20.75;35.21;101636.66;5116584;28;20629;-33
2022/03/17 03:09:36;;;;;;;0.20;0.20;;;;;;;20.74;35.15;101626.69;5114801;28;20051;-32
2022/03/17 03:12:02;;;;;;;0.20;0.20;;;;;;;20.75;35.45;101629.19;5094516;28;20415;-29
2022/03/17 03:14:29;;;;;;;0.20;0.20;;;;;;;20.74;35.28;101622.00;5111480;28;20086;-31
2022/03/17 03:16:54;;;;;;;0.20;0.20;;;;;;;20.74;35.13;101621.16;5113914;28;20043;-30
2022/03/17 03:19:20;;;;;;;0.20;0.20;;;;;;;20.74;35.27;101633.06;5117493;28;20043;-31
2022/03/17 03:21:46;;;;;;;0.10;0.10;;;;;;;20.74;35.33;101644.13;5096427;28;20040;-30
2022/03/17 03:24:13;;;;;;;0.20;0.20;;;;;;;20.74;35.20;101640.53;5112828;28;20051;-29
2022/03/17 03:26:40;;;;;;;0.20;0.20;;;;;;;20.74;35.27;101649.69;5094668;28;20086;-30
2022/03/17 03:29:16;;;;;;;0.20;0.20;;;;;;;20.73;35.26;101656.31;5081332;28;20506;-29
2022/03/17 03:31:42;;;;;;;0.20;0.20;;;;;;;20.74;35.04;101662.69;5115876;28;20071;-29
2022/03/17 03:34:08;;;;;;;0.20;0.20;;;;;;;20.73;35.53;101667.41;5096590;28;20389;-30
2022/03/17 03:39:19;;;;;;;0.20;0.20;;;;;;;20.75;35.29;101672.66;5098343;28;20039;-33
2022/03/17 03:41:45;;;;;;;0.20;0.20;;;;;;;20.74;35.38;101676.53;5115210;28;20062;-29
2022/03/17 03:44:14;;;;;;;0.20;0.20;;;;;;;20.74;35.17;101682.06;5117049;28;20490;-30
2022/03/17 03:46:40;;;;;;;0.10;0.10;;;;;;;20.73;35.20;101689.53;5120029;28;20234;-32
2022/03/17 03:49:06;;;;;;;0.20;0.20;;;;;;;20.73;35.28;101695.06;5113372;28;20046;-30
2022/03/17 03:51:32;;;;;;;0.10;0.10;;;;;;;20.73;35.27;101691.47;5096468;28;20487;-34
2022/03/17 03:54:13;;;;;;;0.20;0.20;;;;;;;20.73;35.37;101700.63;5095341;28;20058;-29
2022/03/17 03:56:40;;;;;;;0.20;0.20;;;;;;;20.73;35.24;101708.09;5117558;28;20093;-38
2022/03/17 03:59:08;;;;;;;0.20;0.20;;;;;;;20.72;35.35;101712.75;5114345;28;20491;-31
2022/03/17 04:01:34;;;;;;;0.13;0.13;;;;;;;20.74;35.43;101712.50;5089576;28;20074;-31
2022/03/17 04:04:01;;;;;;;0.20;0.20;;;;;;;20.72;35.06;101723.84;5095308;28;20394;-33
2022/03/17 04:06:27;;;;;;;0.20;0.20;;;;;;;20.71;35.49;101724.13;5111775;28;20099;-31
2022/03/17 04:08:53;;;;;;;0.20;0.20;;;;;;;20.72;35.43;101728.53;5112520;28;20097;-30
2022/03/17 04:11:19;;;;;;;0.20;0.20;;;;;;;20.73;35.10;101733.81;5114264;28;20096;-30
2022/03/17 04:13:44;;;;;;;0.20;0.20;;;;;;;20.73;35.21;101736.59;5111719;28;20425;-34
2022/03/17 04:16:10;;;;;;;0.20;0.20;;;;;;;20.73;35.33;101738.53;5114624;28;20124;-31
2022/03/17 04:18:36;;;;;;;0.20;0.20;;;;;;;20.72;35.49;101745.16;5114277;28;20043;-30
2022/03/17 04:21:01;;;;;;;0.20;0.20;;;;;;;20.73;35.17;101750.44;5117997;28;21189;-31
2022/03/17 04:23:27;;;;;;;0.20;0.20;;;;;;;20.72;35.37;101750.69;5114610;28;20666;-34
2022/03/17 04:25:53;;;;;;;0.20;0.20;;;;;;;20.72;35.24;101759.81;5113384;28;20039;-33
2022/03/17 04:28:18;;;;;;;0.20;0.20;;;;;;;20.72;35.20;101759.81;5116395;28;20099;-31
2022/03/17 04:30:45;;;;;;;0.20;0.20;;;;;;;20.73;35.27;101760.69;5115893;28;20744;-29
2022/03/17 04:33:10;;;;;;;0.20;0.20;;;;;;;20.73;35.44;101766.22;5097909;28;20047;-29
2022/03/17 04:35:36;;;;;;;0.15;0.15;;;;;;;20.71;35.23;101762.88;5116879;28;20159;-30
2022/03/17 04:38:02;;;;;;;0.20;0.20;;;;;;;20.71;35.45;101766.47;5113407;28;20054;-30
2022/03/17 04:40:27;;;;;;;0.20;0.20;;;;;;;20.71;35.19;101776.72;5111158;28;20490;-31
2022/03/17 04:42:53;;;;;;;0.20;0.20;;;;;;;20.72;35.25;101781.13;5119099;27;20053;-31
2022/03/17 04:45:19;;;;;;;0.10;0.10;;;;;;;20.73;35.31;101777.28;5116429;28;20703;-31
2022/03/17 04:47:45;;;;;;;0.20;0.20;;;;;;;20.72;35.14;101786.69;5112627;28;20044;-31
2022/03/17 04:50:10;;;;;;;0.20;0.20;;;;;;;20.72;35.32;101794.97;5108121;28;20411;-31
2022/03/17 04:55:22;;;;;;;0.20;0.20;;;;;;;20.71;35.31;101799.69;5099184;28;20134;-30
2022/03/17 04:57:47;;;;;;;0.20;0.20;;;;;;;20.71;35.14;101802.44;5114609;28;20074;-29
2022/03/17 05:00:13;;;;;;;0.20;0.20;;;;;;;20.71;35.31;101802.44;5113080;28;20058;-29
2022/03/17 05:02:39;;;;;;;0.10;0.10;;;;;;;20.71;35.40;101805.22;5095997;28;20059;-31
2022/03/17 05:05:05;;;;;;;0.15;0.15;;;;;;;20.71;35.56;101810.75;5111514;28;20099;-29
2022/03/17 05:07:31;;;;;;;0.20;0.20;;;;;;;20.71;35.24;101819.06;5111471;28;20086;-30
2022/03/17 05:09:57;;;;;;;0.20;0.20;;;;;;;20.71;35.45;101827.38;5114454;28;20086;-30
2022/03/17 05:12:22;;;;;;;0.20;0.20;;;;;;;20.71;35.50;101835.66;5114295;28;20413;-33
2022/03/17 05:14:48;;;;;;;0.20;0.20;;;;;;;20.72;35.48;101844.81;5111191;28;20043;-31
2022/03/17 05:17:14;;;;;;;0.13;0.13;;;;;;;20.71;35.41;101848.69;5114750;28;20051;-34
2022/03/17 05:19:40;;;;;;;0.10;0.10;;;;;;;20.71;35.58;101854.22;5112930;28;20228;-33
2022/03/17 05:22:05;;;;;;;0.20;0.20;;;;;;;20.71;35.55;101865.28;5114073;28;20046;-30
2022/03/17 05:24:32;;;;;;;0.20;0.20;;;;;;;20.69;35.33;101875.81;5111309;28;20096;-29
2022/03/17 05:26:58;;;;;;;0.10;0.10;;;;;;;20.69;35.29;101887.72;5110812;28;20229;-31
2022/03/17 05:29:24;;;;;;;0.20;0.20;;;;;;;20.70;35.62;101885.78;5110255;28;20059;-31
2022/03/17 05:31:49;;;;;;;0.13;0.13;;;;;;;20.71;35.38;101892.97;5113105;28;20039;-29
2022/03/17 05:34:15;;;;;;;0.20;0.20;;;;;;;20.70;35.37;101892.13;5112207;28;20051;-31
2022/03/17 05:36:41;;;;;;;0.20;0.20;;;;;;;20.70;35.26;101899.63;5114327;28;20453;-35
2022/03/17 05:39:06;;;;;;;0.20;0.20;;;;;;;20.69;35.32;101918.16;5112433;28;20462;-31
2022/03/17 05:41:32;;;;;;;0.10;0.10;;;;;;;20.70;35.33;101921.75;5112740;28;20271;-32
2022/03/17 05:43:58;;;;;;;0.20;0.20;;;;;;;20.69;35.48;101931.16;5108823;28;20457;-32
2022/03/17 05:46:25;;;;;;;0.20;0.20;;;;;;;20.68;35.39;101927.56;5110425;28;20167;-31
2022/03/17 05:48:52;;;;;;;0.10;0.10;;;;;;;20.68;35.51;101943.31;5108024;28;20043;-31
2022/03/17 05:51:17;;;;;;;0.20;0.20;;;;;;;20.68;35.50;101952.47;5109960;28;20071;-31
2022/03/17 05:53:43;;;;;;;0.20;0.20;;;;;;;20.68;35.50;101963.56;5107984;28;20397;-32
2022/03/17 05:56:10;;;;;;;0.20;0.20;;;;;;;20.69;35.46;101967.97;5112538;27;20070;-31
2022/03/17 05:58:36;;;;;;;0.20;0.20;;;;;;;20.68;35.31;101971.84;5113262;28;20330;-32
2022/03/17 06:01:02;;;;;;;0.20;0.20;;;;;;;20.68;35.21;101977.41;5115047;28;20226;-31
2022/03/17 06:03:28;;;;;;;0.10;0.10;;;;;;;20.68;35.15;101990.38;5114014;27;20054;-33
2022/03/17 06:05:54;;;;;;;0.20;0.20;;;;;;;20.68;35.63;101993.13;5113064;28;20039;-29
2022/03/17 06:08:19;;;;;;;0.20;0.20;;;;;;;20.68;35.29;101995.91;5117346;28;20065;-31
2022/03/17 06:10:45;;;;;;;0.10;0.10;;;;;;;20.67;35.34;102006.16;5114344;28;20097;-32
2022/03/17 06:13:11;;;;;;;0.10;0.10;;;;;;;20.67;35.37;102008.91;5118245;28;20055;-28
2022/03/17 06:15:37;;;;;;;0.20;0.20;;;;;;;20.69;35.41;102016.97;5116276;28;20440;-33
2022/03/17 06:18:04;;;;;;;0.20;0.20;;;;;;;20.67;35.40;102028.28;5111148;28;20225;-31
2022/03/17 06:20:32;;;;;;;0.10;0.10;;;;;;;20.67;35.37;102036.59;5095381;28;20125;-33
2022/03/17 06:22:59;;;;;;;0.10;0.10;;;;;;;20.67;35.52;102038.53;5116835;28;20074;-32
2022/03/17 06:25:27;;;;;;;0.10;0.10;;;;;;;20.66;35.68;102046.00;5116601;28;20065;-30
2022/03/17 06:27:53;;;;;;;0.10;0.10;;;;;;;20.66;35.55;102054.31;5108299;28;20075;-33
2022/03/17 06:30:22;;;;;;;0.10;0.10;;;;;;;20.66;35.60;102057.06;5110929;28;20079;-33
2022/03/17 06:32:48;;;;;;;0.20;0.20;;;;;;;20.67;35.40;102060.69;5114583;28;20138;-30
2022/03/17 06:35:17;;;;;;;0.17;0.17;;;;;;;20.65;35.64;102077.56;5115656;28;20051;-30
2022/03/17 06:37:44;;;;;;;0.10;0.10;;;;;;;20.65;35.56;102090.56;5116495;28;20070;-32
2022/03/17 06:40:11;;;;;;;0.20;0.20;;;;;;;20.65;35.50;102099.69;5092828;28;20397;-31
2022/03/17 06:42:36;;;;;;;0.20;0.20;;;;;;;20.66;35.55;102095.00;5110144;28;20505;-33
2022/03/17 06:45:03;;;;;;;0.20;0.20;;;;;;;20.66;35.24;102106.91;5108710;27;21237;-31
2022/03/17 06:47:28;;;;;;;0.20;0.20;;;;;;;20.64;35.60;102111.88;5091491;28;20402;-32
2022/03/17 06:49:54;;;;;;;0.20;0.20;;;;;;;20.66;35.48;102123.50;5089838;28;20047;-33
2022/03/17 06:52:20;;;;;;;0.20;0.20;;;;;;;20.66;35.31;102125.44;5110976;27;20628;-31
2022/03/17 06:54:46;;;;;;;0.20;0.20;;;;;;;20.66;35.53;102133.75;5108967;28;20054;-30
2022/03/17 06:57:17;;;;;;;0.20;0.20;;;;;;;20.65;35.28;102141.22;5109299;28;20068;-29
2022/03/17 06:59:43;;;;;;;0.20;0.20;;;;;;;20.65;35.54;102157.81;5089626;28;20130;-33
2022/03/17 07:02:08;;;;;;;0.20;0.20;;;;;;;20.65;35.88;102160.59;5102835;27;20130;-34
2022/03/17 07:04:35;;;;;;;0.20;0.20;;;;;;;20.65;35.57;102162.53;5103655;28;20048;-33
2022/03/17 07:07:00;;;;;;;0.15;0.15;;;;;;;20.66;35.42;102165.03;5103477;27;20070;-32
2022/03/17 07:09:26;;;;;;;0.20;0.20;;;;;;;20.64;35.40;102167.25;5107896;28;20287;-36
2022/03/17 07:11:52;;;;;;;0.20;0.20;;;;;;;20.65;35.73;102168.91;5107913;28;20080;-32
2022/03/17 07:14:17;;;;;;;0.20;0.20;;;;;;;20.65;35.70;102179.97;5091524;28;20071;-31
2022/03/17 07:16:43;;;;;;;0.20;0.20;;;;;;;20.65;35.28;102184.69;5113404;28;20044;-33
2022/03/17 07:19:10;;;;;;;0.10;0.10;;;;;;;20.65;35.76;102190.22;5109587;28;20070;-33
2022/03/17 07:21:35;;;;;;;0.20;0.20;;;;;;;20.65;35.68;102198.53;5111793;28;20053;-33
2022/03/17 07:24:01;;;;;;;0.20;0.20;;;;;;;20.65;35.29;102209.59;5108907;28;20530;-36
2022/03/17 07:26:27;;;;;;;0.20;0.20;;;;;;;20.65;35.40;102215.13;5111747;28;20087;-31
2022/03/17 07:28:54;;;;;;;0.20;0.20;;;;;;;20.64;35.69;102219.81;5114598;27;20055;-35
2022/03/17 07:31:21;;;;;;;0.20;0.20;;;;;;;20.65;35.65;102227.03;5111931;28;20044;-33
2022/03/17 07:33:49;;;;;;;0.20;0.20;;;;;;;20.64;35.48;102230.03;5110253;28;20399;-33
2022/03/17 07:36:15;;;;;;;0.20;0.20;;;;;;;20.64;35.73;102241.09;5107585;28;20075;-33
2022/03/17 07:38:41;;;;;;;0.20;0.20;;;;;;;20.65;35.57;102246.41;5105701;28;20071;-35
2022/03/17 07:41:06;;;;;;;0.20;0.20;;;;;;;20.64;35.62;102243.88;5108968;28;20075;-31
2022/03/17 07:43:32;;;;;;;0.20;0.20;;;;;;;20.65;35.48;102260.25;5105311;28;20135;-35
2022/03/17 07:45:58;;;;;;;0.20;0.20;;;;;;;20.64;35.35;102266.88;5086357;28;20040;-29
2022/03/17 07:48:24;;;;;;;0.20;0.20;;;;;;;20.64;35.61;102279.88;5110254;28;20047;-32
2022/03/17 07:50:50;;;;;;;0.20;0.20;;;;;;;20.64;35.83;102288.16;5106258;28;20055;-30
2022/03/17 07:53:17;;;;;;;0.20;0.20;;;;;;;20.65;35.70;102285.16;5106028;28;20816;-33
2022/03/17 07:55:43;;;;;;;0.20;0.20;;;;;;;20.64;35.57;102289.03;5108976;28;20047;-31
2022/03/17 07:58:10;;;;;;;0.20;0.20;;;;;;;20.63;35.71;102289.28;5089404;28;20163;-32
2022/03/17 08:00:37;;;;;;;0.20;0.20;;;;;;;20.64;35.68;102299.25;5105740;27;20491;-31
2022/03/17 08:03:04;;;;;;;0.20;0.20;;;;;;;20.63;35.55;102301.16;5083674;28;20055;-31
2022/03/17 08:05:30;;;;;;;0.20;0.20;;;;;;;20.63;35.70;102303.09;5104410;28;20094;-33
2022/03/17 08:07:56;;;;;;;0.10;0.10;;;;;;;20.64;35.45;102318.63;5097964;28;20050;-31
2022/03/17 08:10:22;;;;;;;0.15;0.15;;;;;;;20.64;35.76;102325.00;5100932;27;20051;-31
2022/03/17 08:12:48;;;;;;;0.20;0.20;;;;;;;20.64;35.68;102332.44;5106741;28;20191;-31
2022/03/17 08:15:14;;;;;;;0.20;0.20;;;;;;;20.62;35.94;102329.94;5107853;28;20052;-32
2022/03/17 08:17:40;;;;;;;0.20;0.20;;;;;;;20.62;35.71;102327.19;5108155;28;20127;-32
2022/03/17 08:20:06;;;;;;;0.20;0.20;;;;;;;20.63;35.37;102336.31;5110161;28;20081;-31
2022/03/17 08:22:32;;;;;;;0.13;0.13;;;;;;;20.63;35.45;102339.91;5092585;28;20342;-32
2022/03/17 08:24:58;;;;;;;0.10;0.10;;;;;;;20.64;35.79;102347.16;5110017;28;20079;-31
2022/03/17 08:27:24;;;;;;;0.20;0.20;;;;;;;20.62;35.66;102341.03;5110389;28;20411;-31
2022/03/17 08:29:49;;;;;;;0.20;0.20;;;;;;;20.63;35.91;102353.75;5106829;28;20043;-33
2022/03/17 08:32:15;;;;;;;0.20;0.20;;;;;;;20.64;35.69;102355.47;5110139;28;20413;-32
2022/03/17 08:34:41;;;;;;;0.20;0.20;;;;;;;20.63;35.76;102362.06;5105267;28;20051;-31
2022/03/17 08:37:07;;;;;;;0.17;0.17;;;;;;;20.62;35.60;102363.16;5107059;28;20043;-34
2022/03/17 08:39:32;;;;;;;0.20;0.20;;;;;;;20.63;35.71;102366.78;5103263;28;20043;-31
2022/03/17 08:41:58;;;;;;;0.20;0.20;;;;;;;20.64;35.52;102374.84;5104664;28;20047;-33
2022/03/17 08:44:24;;;;;;;0.20;0.20;;;;;;;20.63;35.91;102388.91;5106057;28;20100;-32
2022/03/17 08:49:36;;;;;;;0.20;0.20;;;;;;;20.69;36.24;102397.06;5094281;28;20152;-40
2022/03/17 08:52:02;;;;;;;0.20;0.20;;;;;;;20.61;37.43;102394.72;5103660;28;20072;-32
2022/03/17 08:54:29;;;;;;;0.20;0.20;;;;;;;20.71;36.75;102394.84;5089778;27;20127;-36
2022/03/17 08:56:59;;;;;;;0.10;0.10;;;;;;;20.76;36.49;102405.16;5107132;28;20109;-34
2022/03/17 08:59:28;;;;;;;0.20;0.20;;;;;;;20.76;36.40;102405.16;5082821;28;20090;-30
2022/03/17 09:01:54;;;;;;;0.20;0.20;;;;;;;20.77;36.64;102412.38;5103433;27;20078;-31
2022/03/17 09:04:20;;;;;;;0.20;0.20;;;;;;;20.80;36.19;102414.63;5104421;28;20055;-31
2022/03/17 09:06:46;;;;;;;0.20;0.20;;;;;;;20.80;36.38;102418.22;5098659;28;20083;-33
2022/03/17 09:09:12;;;;;;;0.20;0.20;;;;;;;20.81;36.10;102424.59;5098634;28;20187;-32
2022/03/17 09:11:38;;;;;;;0.20;0.20;;;;;;;20.79;36.33;102419.31;5100995;28;20047;-31
2022/03/17 09:14:07;;;;;;;0.20;0.20;;;;;;;20.82;35.88;102434.59;5103413;28;20048;-31
2022/03/17 09:16:33;;;;;;;0.20;0.20;;;;;;;20.82;35.87;102434.59;5067051;28;20089;-34
2022/03/17 09:18:59;;;;;;;0.20;0.20;;;;;;;20.82;35.88;102437.38;5100808;27;20050;-32
2022/03/17 09:21:27;;;;;;;0.20;0.20;;;;;;;20.87;36.14;102442.97;5103373;28;20044;-32
2022/03/17 09:23:54;;;;;;;0.20;0.20;;;;;;;20.89;36.32;102446.31;5100999;28;20078;-31
2022/03/17 09:26:19;;;;;;;0.20;0.20;;;;;;;20.95;36.09;102455.56;5087481;28;20082;-32
2022/03/17 09:28:45;;;;;;;0.10;0.10;;;;;;;20.96;35.99;102452.50;5104897;28;20046;-31
2022/03/17 09:31:11;;;;;;;0.20;0.20;;;;;;;20.96;36.31;102454.44;5086657;28;20455;-32
2022/03/17 09:33:37;;;;;;;0.20;0.20;;;;;;;20.97;36.09;102472.75;5109312;28;20047;-32
2022/03/17 09:36:07;;;;;;;0.20;0.20;;;;;;;20.83;36.29;102458.44;5083717;28;20425;-31
2022/03/17 09:38:33;;;;;;;0.10;0.10;;;;;;;20.93;36.02;102474.34;5102325;28;20043;-31
2022/03/17 09:40:59;;;;;;;0.20;0.20;;;;;;;20.99;35.77;102473.34;5107406;28;20047;-30
2022/03/17 09:43:29;;;;;;;0.10;0.10;;;;;;;21.00;36.04;102484.16;5108347;28;20381;-32
2022/03/17 09:45:58;;;;;;;0.20;0.20;;;;;;;21.01;35.94;102485.81;5099192;28;20059;-34
2022/03/17 09:48:26;;;;;;;0.15;0.15;;;;;;;21.03;35.84;102482.81;5110511;27;20070;-31
2022/03/17 09:50:56;;;;;;;0.10;0.10;;;;;;;21.04;35.78;102490.03;5103084;28;20161;-33
2022/03/17 09:53:31;;;;;;;0.20;0.20;;;;;;;21.05;35.75;102484.22;5114347;27;20046;-34
2022/03/17 09:55:56;;;;;;;0.20;0.20;;;;;;;21.05;35.83;102486.16;5072344;28;20087;-32
2022/03/17 09:58:22;;;;;;;0.20;0.20;;;;;;;21.07;35.77;102491.41;5107282;28;20290;-33
2022/03/17 10:00:48;;;;;;;0.20;0.20;;;;;;;21.08;35.68;102505.03;5106240;28;20054;-32
2022/03/17 10:03:17;;;;;;;0.20;0.20;;;;;;;21.09;35.76;102503.94;5104797;28;20305;-32
2022/03/17 10:05:45;;;;;;;0.20;0.20;;;;;;;21.10;35.52;102504.75;5104339;28;20096;-33
2022/03/17 10:08:13;;;;;;;0.10;0.10;;;;;;;21.10;35.52;102513.91;5084461;28;20124;-31
2022/03/17 10:10:42;;;;;;;0.10;0.10;;;;;;;21.11;35.63;102518.34;5086289;28;20058;-36
2022/03/17 10:13:16;;;;;;;0.10;0.10;;;;;;;21.09;35.46;102520.56;5106061;27;20594;-32
2022/03/17 10:15:45;;;;;;;0.20;0.20;;;;;;;21.16;35.32;102525.91;5073481;28;20134;-32
2022/03/17 10:18:18;;;;;;;;;;;;;;;21.16;35.23;102525.91;5112130;28;20143;-31
2022/03/17 10:20:44;;;;;;;0.20;0.20;;;;;;;21.15;35.52;102525.06;5106710;28;19935;-31
2022/03/17 10:23:10;;;;;;;0.20;0.20;;;;;;;21.16;35.62;102529.53;5109382;28;20046;-30
2022/03/17 10:25:37;;;;;;;0.20;0.20;;;;;;;21.17;35.36;102536.75;5112966;28;20087;-31
2022/03/17 10:28:03;;;;;;;0.10;0.10;;;;;;;21.18;35.60;102549.50;5105098;27;20075;-31
2022/03/17 10:30:35;;;;;;;0.20;0.20;;;;;;;21.21;35.26;102550.94;5088580;28;20046;-30
2022/03/17 10:35:45;;;;;;;0.10;0.10;;;;;;;21.22;35.28;102555.38;5164765;27;20536;-36
2022/03/17 10:38:13;;;;;;;0.20;0.20;;;;;;;21.22;35.45;102556.19;5149410;27;20092;-33
2022/03/17 10:40:40;;;;;;;0.20;0.20;;;;;;;21.23;35.43;102559.81;5127906;27;20046;-35
2022/03/17 10:43:15;;;;;;;0.20;0.20;;;;;;;21.23;35.26;102565.34;5149101;27;20141;-33
2022/03/17 10:45:41;;;;;;;0.20;0.20;;;;;;;21.24;35.50;102575.31;5142101;27;20294;-31
2022/03/17 10:48:08;;;;;;;0.10;0.10;;;;;;;21.25;35.27;102577.88;5150951;27;20119;-33
2022/03/17 10:50:43;;;;;;;0.10;0.10;;;;;;;21.25;35.18;102580.63;5144220;27;20532;-33
2022/03/17 10:53:09;;;;;;;0.20;0.20;;;;;;;21.25;35.42;102574.25;5148013;27;20198;-34
2022/03/17 10:55:37;;;;;;;0.20;0.20;;;;;;;21.27;35.16;102583.13;5152809;27;20093;-32
2022/03/17 10:58:19;;;;;;;0.10;0.10;;;;;;;21.28;35.32;102585.66;5152425;27;20125;-35
2022/03/17 11:00:48;;;;;;;0.20;0.20;;;;;;;21.28;35.14;102588.41;5150583;27;20350;-31
2022/03/17 11:03:16;;;;;;;0.20;0.20;;;;;;;21.28;35.28;102591.19;5144770;27;20046;-31
2022/03/17 11:05:42;;;;;;;0.15;0.15;;;;;;;21.31;35.11;102598.16;5135685;27;20065;-32
2022/03/17 11:08:10;;;;;;;0.20;0.20;;;;;;;21.32;35.06;102591.56;5116861;27;20165;-40
2022/03/17 11:10:36;;;;;;;0.20;0.20;;;;;;;21.03;35.18;102594.44;5154517;27;20506;-36
2022/03/17 11:13:09;;;;;;;0.20;0.20;;;;;;;21.30;36.24;102604.81;5153078;27;20097;-35
2022/03/17 11:15:38;;;;;;;0.20;0.20;;;;;;;21.46;36.48;102605.88;5146163;27;20213;-33
2022/03/17 11:18:06;;;;;;;0.20;0.20;;;;;;;21.56;37.04;102608.81;5145963;27;20356;-31
2022/03/17 11:20:32;;;;;;;0.10;0.10;;;;;;;21.54;36.68;102608.22;5149698;27;20057;-32
2022/03/17 11:23:09;;;;;;;0.10;0.10;;;;;;;21.61;36.51;102611.66;5162123;27;20125;-32
2022/03/17 11:25:36;;;;;;;0.17;0.17;;;;;;;21.63;36.40;102614.16;5128543;27;20093;-35
2022/03/17 11:28:04;;;;;;;0.20;0.20;;;;;;;21.62;36.18;102618.84;5130838;27;20084;-32
2022/03/17 11:30:33;;;;;;;;;;;;;;;21.62;36.20;102627.19;5117026;27;20176;-35
2022/03/17 11:33:02;;;;;;;0.20;0.20;;;;;;;21.61;36.17;102622.72;5148789;27;20009;-33
2022/03/17 11:35:29;;;;;;;;;;;;;;;21.61;35.78;102622.72;5149814;27;20138;-33
2022/03/17 11:38:15;;;;;;;0.13;0.13;;;;;;;21.62;36.03;102631.88;5124224;27;20006;-32